Pagrindinis puslapis
METAR-TAF:

METAR-TAF

Oro uostai :

Edwards County Airport

Rocksprings, Teksasas, Jungtinės Amerikos Valstijos

platuma: 29-56-48N, ilguma: 100-10-25W, Aukštis: 723 m

Dabartinis oras

Ataskaita buvo paskelbta 18 minutes, ne 07:15 UTC
Vėjas 6 kt iš Pietų/Pietryčių
Temperatūra 18°C
Drėgmė 64%
Slėgis 1016 hPa
Giedras dangus

METAR: KECU 270715Z AUTO 15006KT CLR 18/11 A3001 RMK AO2

Laikas: 02:33 (07:33 UTC)


TAF: trūkstamas

Orai ataskaitas ir orų prognozės (METAR, TAF).

turimą stotys yra geltonos ir raudonos taškus žemėlapyje.

Perkelti pele per norėdami pamatyti stoties vardą.

Tada spustelėkite, norėdami matyti oro stebėjimo ir prognozės.

Norėdami pakeisti žemėlapį: spustelėkite ant žalios mygtukų su juodo kryžiaus žemyn,; žalią mygtuką su brūkšneliu, jei norite nutolinti; arba žalių rodyklių gretimoms žemėlapius.


METAR-TAF: